Time;durP1;ratioP1;P1;durP2;ratioP2;P2;SDS_P1;SDS_P2;PMS_P1;PMS_P2;Temp;Humidity;BMP_temperature;BMP_pressure;BME280_temperature;BME280_humidity;BME280_pressure;Samples;Min_cycle;Max_cycle;Signal;HPM_P1;HPM_P2
2023/03/03 00:01:35;;;;;;;;;;;;;;;;;;4242330;28;19927;-35
2023/03/03 00:03:37;;;;;;;;;;;;;;;;;;4237539;28;19915;-38
2023/03/03 00:05:39;;;;;;;;;;;;;;;;;;4248546;27;19927;-35
2023/03/03 00:07:40;;;;;;;;;;;;;;;;;;4249169;27;20334;-37
2023/03/03 00:09:41;;;;;;;;;;;;;;;;;;4236232;27;19960;-36
2023/03/03 00:11:42;;;;;;;;;;;;;;;;;;4243045;27;19931;-35
2023/03/03 00:13:44;;;;;;;;;;;;;;;;;;4242836;27;19915;-36
2023/03/03 00:15:45;;;;;;;;;;;;;;;;;;4250024;27;19923;-35
2023/03/03 00:17:45;;;;;;;;;;;;;;;;;;4235384;27;20358;-36
2023/03/03 00:19:47;;;;;;;;;;;;;;;;;;4243895;27;19968;-35
2023/03/03 00:21:48;;;;;;;;;;;;;;;;;;4247852;27;20374;-37
2023/03/03 00:23:49;;;;;;;;;;;;;;;;;;4249584;27;19964;-35
2023/03/03 00:25:51;;;;;;;;;;;;;;;;;;4249365;27;19916;-36
2023/03/03 00:27:52;;;;;;;;;;;;;;;;;;4238370;27;19928;-36
2023/03/03 00:29:53;;;;;;;;;;;;;;;;;;4228096;28;19916;-36
2023/03/03 00:31:54;;;;;;;;;;;;;;;;;;4245876;27;20043;-37
2023/03/03 00:33:55;;;;;;;;;;;;;;;;;;4221194;28;19936;-37
2023/03/03 00:35:56;;;;;;;;;;;;;;;;;;4239695;27;19922;-34
2023/03/03 00:37:57;;;;;;;;;;;;;;;;;;4232771;28;19966;-35
2023/03/03 00:39:57;;;;;;;;;;;;;;;;;;4248230;27;19970;-37
2023/03/03 00:41:59;;;;;;;;;;;;;;;;;;4243883;27;19969;-34
2023/03/03 00:44:00;;;;;;;;;;;;;;;;;;4240921;27;19920;-36
2023/03/03 00:46:02;;;;;;;;;;;;;;;;;;4237367;27;19919;-33
2023/03/03 00:48:03;;;;;;;;;;;;;;;;;;4246245;27;19919;-36
2023/03/03 00:50:04;;;;;;;;;;;;;;;;;;4244594;27;19969;-38
2023/03/03 00:52:05;;;;;;;;;;;;;;;;;;4230652;28;20239;-37
2023/03/03 00:54:06;;;;;;;;;;;;;;;;;;4242922;27;19919;-34
2023/03/03 00:56:08;;;;;;;;;;;;;;;;;;4248747;27;19919;-40
2023/03/03 00:58:09;;;;;;;;;;;;;;;;;;4248109;27;19916;-35
2023/03/03 01:00:15;;;;;;;;;;;;;;;;;;4219108;28;20318;-38
2023/03/03 01:02:16;;;;;;;;;;;;;;;;;;4232172;28;19924;-34
2023/03/03 01:04:17;;;;;;;;;;;;;;;;;;4248526;27;19971;-40
2023/03/03 01:06:18;;;;;;;;;;;;;;;;;;4247724;27;19932;-37
2023/03/03 01:08:20;;;;;;;;;;;;;;;;;;4238430;27;20002;-38
2023/03/03 01:10:21;;;;;;;;;;;;;;;;;;4213642;28;20299;-35
2023/03/03 01:12:22;;;;;;;;;;;;;;;;;;4234907;27;19923;-36
2023/03/03 01:14:23;;;;;;;;;;;;;;;;;;4248811;27;19915;-39
2023/03/03 01:16:25;;;;;;;;;;;;;;;;;;4246745;27;19960;-34
2023/03/03 01:18:26;;;;;;;;;;;;;;;;;;4236044;27;20379;-34
2023/03/03 01:20:27;;;;;;;;;;;;;;;;;;4245548;27;19916;-36
2023/03/03 01:22:30;;;;;;;;;;;;;;;;;;4243103;27;19920;-36
2023/03/03 01:24:31;;;;;;;;;;;;;;;;;;4240084;27;19923;-34
2023/03/03 01:26:32;;;;;;;;;;;;;;;;;;4218680;28;19920;-37
2023/03/03 01:28:33;;;;;;;;;;;;;;;;;;4244705;27;20263;-36
2023/03/03 01:30:34;;;;;;;;;;;;;;;;;;4236003;27;19915;-37
2023/03/03 01:32:36;;;;;;;;;;;;;;;;;;4230303;28;20443;-37
2023/03/03 01:34:37;;;;;;;;;;;;;;;;;;4229985;28;19919;-38
2023/03/03 01:36:38;;;;;;;;;;;;;;;;;;4227017;28;19920;-40
2023/03/03 01:38:40;;;;;;;;;;;;;;;;;;4234697;27;19923;-34
2023/03/03 01:40:41;;;;;;;;;;;;;;;;;;4248378;27;19919;-37
2023/03/03 01:42:42;;;;;;;;;;;;;;;;;;4248756;27;20374;-35
2023/03/03 01:44:44;;;;;;;;;;;;;;;;;;4247105;27;19923;-34
2023/03/03 01:46:45;;;;;;;;;;;;;;;;;;4235682;27;19924;-34
2023/03/03 01:48:45;;;;;;;;;;;;;;;;;;4247050;27;19922;-38
2023/03/03 01:50:47;;;;;;;;;;;;;;;;;;4247748;27;19915;-37
2023/03/03 01:52:48;;;;;;;;;;;;;;;;;;4234617;27;19919;-37
2023/03/03 01:54:50;;;;;;;;;;;;;;;;;;4247640;27;19919;-36
2023/03/03 01:56:51;;;;;;;;;;;;;;;;;;4229884;28;19916;-37
2023/03/03 01:58:53;;;;;;;;;;;;;;;;;;4220734;28;19961;-37
2023/03/03 02:00:53;;;;;;;;;;;;;;;;;;4243837;27;19967;-34
2023/03/03 02:02:55;;;;;;;;;;;;;;;;;;4246020;27;19923;-33
2023/03/03 02:04:55;;;;;;;;;;;;;;;;;;4235836;27;19955;-35
2023/03/03 02:06:57;;;;;;;;;;;;;;;;;;4247973;27;19919;-38
2023/03/03 02:08:58;;;;;;;;;;;;;;;;;;4229765;28;19965;-33
2023/03/03 02:10:59;;;;;;;;;;;;;;;;;;4244617;27;20316;-36
2023/03/03 02:13:00;;;;;;;;;;;;;;;;;;4234900;27;19915;-36
2023/03/03 02:15:02;;;;;;;;;;;;;;;;;;4247606;27;19960;-33
2023/03/03 02:17:03;;;;;;;;;;;;;;;;;;4247962;27;20381;-34
2023/03/03 02:19:06;;;;;;;;;;;;;;;;;;4246300;27;19993;-38
2023/03/03 02:21:07;;;;;;;;;;;;;;;;;;4231131;28;19960;-33
2023/03/03 02:23:09;;;;;;;;;;;;;;;;;;4229808;28;19930;-40
2023/03/03 02:25:09;;;;;;;;;;;;;;;;;;4244236;27;20010;-37
2023/03/03 02:27:10;;;;;;;;;;;;;;;;;;4235962;27;19922;-37
2023/03/03 02:29:12;;;;;;;;;;;;;;;;;;4240237;27;19931;-35
2023/03/03 02:31:15;;;;;;;;;;;;;;;;;;4207973;28;19916;-35
2023/03/03 02:33:17;;;;;;;;;;;;;;;;;;4232033;27;19920;-38
2023/03/03 02:35:19;;;;;;;;;;;;;;;;;;4242273;27;20329;-35
2023/03/03 02:37:20;;;;;;;;;;;;;;;;;;4238339;27;19915;-36
2023/03/03 02:39:21;;;;;;;;;;;;;;;;;;4218189;28;19916;-35
2023/03/03 02:41:23;;;;;;;;;;;;;;;;;;4244763;27;19919;-34
2023/03/03 02:43:25;;;;;;;;;;;;;;;;;;4225829;28;19924;-33
2023/03/03 02:45:26;;;;;;;;;;;;;;;;;;4219577;28;19920;-33
2023/03/03 02:47:27;;;;;;;;;;;;;;;;;;4230825;28;20405;-35
2023/03/03 02:49:29;;;;;;;;;;;;;;;;;;4225068;28;19915;-37
2023/03/03 02:51:31;;;;;;;;;;;;;;;;;;4229008;28;19997;-37
2023/03/03 02:53:32;;;;;;;;;;;;;;;;;;4229177;28;19920;-35
2023/03/03 02:55:33;;;;;;;;;;;;;;;;;;4245918;27;20322;-34
2023/03/03 02:57:34;;;;;;;;;;;;;;;;;;4229482;28;19915;-38
2023/03/03 02:59:35;;;;;;;;;;;;;;;;;;4246958;27;19922;-36
2023/03/03 03:01:43;;;;;;;;;;;;;;;;;;4246138;27;20347;-38
2023/03/03 03:03:47;;;;;;;;;;;;;;;;;;4228630;28;19915;-34
2023/03/03 03:05:51;;;;;;;;;;;;;;;;;;4227903;28;19920;-36
2023/03/03 03:07:54;;;;;;;;;;;;;;;;;;4218796;28;19961;-34
2023/03/03 03:09:55;;;;;;;;;;;;;;;;;;4245942;28;19915;-37
2023/03/03 03:11:58;;;;;;;;;;;;;;;;;;4247284;28;20278;-38
2023/03/03 03:14:00;;;;;;;;;;;;;;;;;;4228827;28;19916;-35
2023/03/03 03:16:01;;;;;;;;;;;;;;;;;;4218340;28;19966;-35
2023/03/03 03:18:04;;;;;;;;;;;;;;;;;;4212329;28;19916;-34
2023/03/03 03:20:05;;;;;;;;;;;;;;;;;;4228384;28;19915;-35
2023/03/03 03:22:07;;;;;;;;;;;;;;;;;;4225576;28;19916;-35
2023/03/03 03:24:09;;;;;;;;;;;;;;;;;;4217339;28;19946;-35
2023/03/03 03:26:13;;;;;;;;;;;;;;;;;;4228933;28;19924;-34
2023/03/03 03:28:14;;;;;;;;;;;;;;;;;;4230172;28;19920;-35
2023/03/03 03:30:15;;;;;;;;;;;;;;;;;;4229838;28;19949;-34
2023/03/03 03:32:17;;;;;;;;;;;;;;;;;;4245936;28;19915;-33
2023/03/03 03:34:18;;;;;;;;;;;;;;;;;;4228339;28;19919;-36
2023/03/03 03:36:19;;;;;;;;;;;;;;;;;;4228745;28;20296;-33
2023/03/03 03:38:20;;;;;;;;;;;;;;;;;;4226015;28;19916;-37
2023/03/03 03:40:24;;;;;;;;;;;;;;;;;;4247378;27;20340;-37
2023/03/03 03:42:25;;;;;;;;;;;;;;;;;;4231934;28;19916;-33
2023/03/03 03:44:26;;;;;;;;;;;;;;;;;;4238821;27;20019;-40
2023/03/03 03:46:29;;;;;;;;;;;;;;;;;;4229204;28;19957;-33
2023/03/03 03:48:29;;;;;;;;;;;;;;;;;;4231980;28;20002;-37
2023/03/03 03:50:31;;;;;;;;;;;;;;;;;;4222171;28;19968;-34
2023/03/03 03:52:32;;;;;;;;;;;;;;;;;;4221827;28;19916;-35
2023/03/03 03:54:33;;;;;;;;;;;;;;;;;;4245428;27;20006;-35
2023/03/03 03:56:34;;;;;;;;;;;;;;;;;;4250138;27;19969;-37
2023/03/03 03:58:36;;;;;;;;;;;;;;;;;;4248998;27;19915;-33
2023/03/03 04:00:41;;;;;;;;;;;;;;;;;;4222193;28;19924;-33
2023/03/03 04:02:42;;;;;;;;;;;;;;;;;;4244953;27;19972;-35
2023/03/03 04:04:47;;;;;;;;;;;;;;;;;;4217191;28;19924;-33
2023/03/03 04:06:48;;;;;;;;;;;;;;;;;;4231758;28;19949;-36
2023/03/03 04:08:49;;;;;;;;;;;;;;;;;;4240656;27;20355;-35
2023/03/03 04:10:52;;;;;;;;;;;;;;;;;;4244147;27;19915;-36
2023/03/03 04:12:54;;;;;;;;;;;;;;;;;;4246120;27;19919;-36
2023/03/03 04:14:55;;;;;;;;;;;;;;;;;;4236882;27;19961;-37
2023/03/03 04:16:56;;;;;;;;;;;;;;;;;;4241415;27;19969;-36
2023/03/03 04:18:57;;;;;;;;;;;;;;;;;;4225794;28;19923;-39
2023/03/03 04:20:58;;;;;;;;;;;;;;;;;;4248173;27;19919;-38
2023/03/03 04:23:00;;;;;;;;;;;;;;;;;;4231566;28;19920;-34
2023/03/03 04:25:03;;;;;;;;;;;;;;;;;;4235210;27;19923;-37
2023/03/03 04:27:08;;;;;;;;;;;;;;;;;;4231555;28;20282;-35
2023/03/03 04:29:09;;;;;;;;;;;;;;;;;;4242730;27;19915;-36
2023/03/03 04:31:10;;;;;;;;;;;;;;;;;;4232776;28;20366;-33
2023/03/03 04:33:11;;;;;;;;;;;;;;;;;;4228632;28;19969;-34
2023/03/03 04:35:14;;;;;;;;;;;;;;;;;;4227125;28;19916;-36
2023/03/03 04:37:17;;;;;;;;;;;;;;;;;;4222031;28;20723;-35
2023/03/03 04:39:18;;;;;;;;;;;;;;;;;;4231401;28;19924;-35
2023/03/03 04:41:19;;;;;;;;;;;;;;;;;;4214410;28;19916;-34
2023/03/03 04:43:22;;;;;;;;;;;;;;;;;;4181450;28;19982;-33
2023/03/03 04:45:24;;;;;;;;;;;;;;;;;;4221022;28;19915;-36
2023/03/03 04:47:25;;;;;;;;;;;;;;;;;;4224052;28;19919;-33
2023/03/03 04:49:29;;;;;;;;;;;;;;;;;;4230764;27;19919;-37
2023/03/03 04:51:30;;;;;;;;;;;;;;;;;;4215577;28;19916;-34
2023/03/03 04:53:32;;;;;;;;;;;;;;;;;;4231314;28;19916;-36
2023/03/03 04:55:33;;;;;;;;;;;;;;;;;;4221720;28;19928;-34
2023/03/03 04:57:34;;;;;;;;;;;;;;;;;;4243394;27;19960;-35
2023/03/03 04:59:35;;;;;;;;;;;;;;;;;;4242818;27;19961;-37
2023/03/03 05:01:37;;;;;;;;;;;;;;;;;;4223462;28;19915;-37
2023/03/03 05:03:39;;;;;;;;;;;;;;;;;;4230937;28;19964;-35
2023/03/03 05:05:40;;;;;;;;;;;;;;;;;;4230288;28;19919;-37
2023/03/03 05:07:41;;;;;;;;;;;;;;;;;;4244173;27;19969;-34
2023/03/03 05:09:42;;;;;;;;;;;;;;;;;;4240253;27;19960;-35
2023/03/03 05:11:43;;;;;;;;;;;;;;;;;;4237352;27;19998;-35
2023/03/03 05:13:44;;;;;;;;;;;;;;;;;;4245505;27;19915;-37
2023/03/03 05:15:46;;;;;;;;;;;;;;;;;;4235917;27;20374;-35
2023/03/03 05:17:47;;;;;;;;;;;;;;;;;;4230574;28;19916;-35
2023/03/03 05:19:48;;;;;;;;;;;;;;;;;;4237918;27;19973;-37
2023/03/03 05:21:49;;;;;;;;;;;;;;;;;;4245641;27;19922;-38
2023/03/03 05:23:51;;;;;;;;;;;;;;;;;;4247228;27;19919;-36
2023/03/03 05:25:52;;;;;;;;;;;;;;;;;;4241478;27;19989;-35
2023/03/03 05:27:53;;;;;;;;;;;;;;;;;;4231475;28;19919;-34
2023/03/03 05:29:55;;;;;;;;;;;;;;;;;;4229897;28;19920;-33
2023/03/03 05:31:56;;;;;;;;;;;;;;;;;;4247030;27;20381;-38
2023/03/03 05:33:57;;;;;;;;;;;;;;;;;;4248179;27;19919;-37
2023/03/03 05:35:58;;;;;;;;;;;;;;;;;;4248605;27;19919;-35
2023/03/03 05:37:59;;;;;;;;;;;;;;;;;;4248844;27;19922;-36
2023/03/03 05:40:00;;;;;;;;;;;;;;;;;;4235200;27;19916;-37
2023/03/03 05:42:01;;;;;;;;;;;;;;;;;;4248751;27;19915;-35
2023/03/03 05:44:02;;;;;;;;;;;;;;;;;;4248301;27;19915;-34
2023/03/03 05:46:03;;;;;;;;;;;;;;;;;;4248219;27;19923;-37
2023/03/03 05:48:04;;;;;;;;;;;;;;;;;;4248214;27;19976;-33
2023/03/03 05:50:05;;;;;;;;;;;;;;;;;;4244154;27;19916;-36
2023/03/03 05:52:07;;;;;;;;;;;;;;;;;;4238275;27;20290;-35
2023/03/03 05:54:08;;;;;;;;;;;;;;;;;;4238005;27;19923;-33
2023/03/03 05:56:09;;;;;;;;;;;;;;;;;;4231399;28;20278;-33
2023/03/03 05:58:10;;;;;;;;;;;;;;;;;;4247408;27;19983;-37
2023/03/03 06:00:11;;;;;;;;;;;;;;;;;;4227931;28;20005;-37
2023/03/03 06:02:15;;;;;;;;;;;;;;;;;;4243286;27;19919;-35
2023/03/03 06:04:16;;;;;;;;;;;;;;;;;;4232951;27;19930;-38
2023/03/03 06:06:18;;;;;;;;;;;;;;;;;;4244470;27;20010;-39
2023/03/03 06:08:19;;;;;;;;;;;;;;;;;;4245969;27;19919;-39
2023/03/03 06:10:20;;;;;;;;;;;;;;;;;;4246020;27;19915;-38
2023/03/03 06:12:25;;;;;;;;;;;;;;;;;;4227382;28;19992;-36
2023/03/03 06:14:26;;;;;;;;;;;;;;;;;;4243997;27;19941;-37
2023/03/03 06:16:27;;;;;;;;;;;;;;;;;;4233021;27;19940;-36
2023/03/03 06:18:29;;;;;;;;;;;;;;;;;;4220258;28;19973;-38
2023/03/03 06:20:30;;;;;;;;;;;;;;;;;;4239336;27;20323;-39
2023/03/03 06:22:32;;;;;;;;;;;;;;;;;;4245541;27;20341;-37
2023/03/03 06:24:33;;;;;;;;;;;;;;;;;;4245125;27;19923;-34
2023/03/03 06:26:34;;;;;;;;;;;;;;;;;;4245232;27;19926;-39
2023/03/03 06:28:35;;;;;;;;;;;;;;;;;;4243445;27;20290;-35
2023/03/03 06:30:37;;;;;;;;;;;;;;;;;;4235259;27;19976;-38
2023/03/03 06:32:38;;;;;;;;;;;;;;;;;;4235823;27;19965;-37
2023/03/03 06:34:39;;;;;;;;;;;;;;;;;;4227908;28;19973;-33
2023/03/03 06:36:41;;;;;;;;;;;;;;;;;;4244464;27;19920;-39
2023/03/03 06:38:42;;;;;;;;;;;;;;;;;;4235692;27;19915;-37
2023/03/03 06:40:43;;;;;;;;;;;;;;;;;;4245322;27;20385;-37
2023/03/03 06:42:45;;;;;;;;;;;;;;;;;;4233604;27;20456;-37
2023/03/03 06:44:46;;;;;;;;;;;;;;;;;;4242089;27;19957;-34
2023/03/03 06:46:47;;;;;;;;;;;;;;;;;;4233304;27;19919;-41
2023/03/03 06:48:48;;;;;;;;;;;;;;;;;;4237645;27;19923;-37
2023/03/03 06:50:50;;;;;;;;;;;;;;;;;;4209827;28;19919;-37
2023/03/03 06:52:51;;;;;;;;;;;;;;;;;;4242400;27;19915;-39
2023/03/03 06:54:52;;;;;;;;;;;;;;;;;;4226999;28;19927;-35
2023/03/03 06:56:53;;;;;;;;;;;;;;;;;;4245056;27;20275;-39
2023/03/03 06:58:54;;;;;;;;;;;;;;;;;;4235155;27;19943;-38
2023/03/03 07:00:55;;;;;;;;;;;;;;;;;;4244936;27;19919;-38
2023/03/03 07:02:56;;;;;;;;;;;;;;;;;;4245018;27;19918;-34
2023/03/03 07:04:57;;;;;;;;;;;;;;;;;;4244666;27;20030;-37
2023/03/03 07:06:58;;;;;;;;;;;;;;;;;;4232128;28;19920;-37
2023/03/03 07:08:59;;;;;;;;;;;;;;;;;;4244046;28;20364;-39
2023/03/03 07:11:01;;;;;;;;;;;;;;;;;;4239685;28;19946;-37
2023/03/03 07:13:01;;;;;;;;;;;;;;;;;;4236595;28;19926;-35
2023/03/03 07:15:03;;;;;;;;;;;;;;;;;;4234440;27;20386;-35
2023/03/03 07:17:04;;;;;;;;;;;;;;;;;;4246583;27;19915;-35
2023/03/03 07:19:05;;;;;;;;;;;;;;;;;;4248276;27;19919;-34
2023/03/03 07:21:06;;;;;;;;;;;;;;;;;;4241142;27;19961;-37
2023/03/03 07:23:07;;;;;;;;;;;;;;;;;;4242564;27;19927;-34
2023/03/03 07:25:09;;;;;;;;;;;;;;;;;;4247527;27;19923;-40
2023/03/03 07:27:10;;;;;;;;;;;;;;;;;;4234745;27;19934;-37
2023/03/03 07:29:11;;;;;;;;;;;;;;;;;;4247893;27;19919;-37
2023/03/03 07:31:12;;;;;;;;;;;;;;;;;;4239158;27;19919;-38
2023/03/03 07:33:13;;;;;;;;;;;;;;;;;;4244932;27;19927;-40
2023/03/03 07:35:14;;;;;;;;;;;;;;;;;;4231782;27;19920;-38
2023/03/03 07:37:16;;;;;;;;;;;;;;;;;;4236419;27;19982;-37
2023/03/03 07:39:18;;;;;;;;;;;;;;;;;;4239771;27;20327;-42
2023/03/03 07:41:19;;;;;;;;;;;;;;;;;;4244098;27;19927;-37
2023/03/03 07:43:20;;;;;;;;;;;;;;;;;;4247954;27;19964;-40
2023/03/03 07:45:21;;;;;;;;;;;;;;;;;;4248116;27;19919;-37
2023/03/03 07:47:23;;;;;;;;;;;;;;;;;;4239424;27;20148;-40
2023/03/03 07:49:24;;;;;;;;;;;;;;;;;;4242037;27;20437;-38
2023/03/03 07:51:26;;;;;;;;;;;;;;;;;;4247762;27;19926;-41
2023/03/03 07:53:27;;;;;;;;;;;;;;;;;;4247982;27;20299;-41
2023/03/03 07:55:28;;;;;;;;;;;;;;;;;;4247825;27;20438;-40
2023/03/03 07:57:30;;;;;;;;;;;;;;;;;;4229627;28;20468;-37
2023/03/03 07:59:31;;;;;;;;;;;;;;;;;;4245078;27;19933;-40
2023/03/03 08:01:32;;;;;;;;;;;;;;;;;;4237955;27;19919;-38
2023/03/03 08:03:34;;;;;;;;;;;;;;;;;;4229505;28;20410;-37
2023/03/03 08:05:35;;;;;;;;;;;;;;;;;;4229368;28;19984;-34
2023/03/03 08:07:37;;;;;;;;;;;;;;;;;;4234913;27;19919;-37
2023/03/03 08:09:38;;;;;;;;;;;;;;;;;;4244241;27;19972;-34
2023/03/03 08:11:40;;;;;;;;;;;;;;;;;;4233414;27;19976;-37
2023/03/03 08:13:41;;;;;;;;;;;;;;;;;;4229771;28;19920;-39
2023/03/03 08:15:42;;;;;;;;;;;;;;;;;;4240786;27;19919;-36
2023/03/03 08:17:44;;;;;;;;;;;;;;;;;;4247072;27;20339;-37
2023/03/03 08:19:46;;;;;;;;;;;;;;;;;;4235576;27;19919;-34
2023/03/03 08:21:47;;;;;;;;;;;;;;;;;;4231963;27;20227;-36
2023/03/03 08:23:50;;;;;;;;;;;;;;;;;;4234853;27;19924;-36
2023/03/03 08:25:51;;;;;;;;;;;;;;;;;;4246382;27;20327;-35
2023/03/03 08:27:52;;;;;;;;;;;;;;;;;;4245458;27;20273;-34
2023/03/03 08:29:53;;;;;;;;;;;;;;;;;;4232297;27;20466;-36
2023/03/03 08:31:54;;;;;;;;;;;;;;;;;;4233942;27;19968;-39
2023/03/03 08:33:55;;;;;;;;;;;;;;;;;;4225687;28;20391;-40
2023/03/03 08:35:56;;;;;;;;;;;;;;;;;;4235176;27;20294;-35
2023/03/03 08:37:57;;;;;;;;;;;;;;;;;;4229959;28;19919;-35
2023/03/03 08:39:58;;;;;;;;;;;;;;;;;;4244293;27;20297;-38
2023/03/03 08:41:59;;;;;;;;;;;;;;;;;;4236323;27;19967;-34
2023/03/03 08:44:00;;;;;;;;;;;;;;;;;;4240556;27;20375;-37
2023/03/03 08:46:01;;;;;;;;;;;;;;;;;;4236097;27;19919;-37
2023/03/03 08:48:09;;;;;;;;;;;;;;;;;;4231797;27;19920;-40
2023/03/03 08:50:48;;;;;;;;;;;;;;;;;;4233847;27;20439;-37
2023/03/03 08:53:07;;;;;;;;;;;;;;;;;;4234169;27;19916;-36
2023/03/03 08:55:08;;;;;;;;;;;;;;;;;;4232304;27;19946;-37
2023/03/03 08:57:09;;;;;;;;;;;;;;;;;;4242647;27;19942;-39
2023/03/03 08:59:11;;;;;;;;;;;;;;;;;;4244948;27;20340;-37
2023/03/03 09:01:12;;;;;;;;;;;;;;;;;;4230505;27;19920;-36
2023/03/03 09:03:13;;;;;;;;;;;;;;;;;;4236285;27;19946;-38
2023/03/03 09:05:14;;;;;;;;;;;;;;;;;;4234871;27;19919;-37
2023/03/03 09:07:16;;;;;;;;;;;;;;;;;;4243610;27;19915;-36
2023/03/03 09:09:18;;;;;;;;;;;;;;;;;;4234447;27;19988;-36
2023/03/03 09:11:18;;;;;;;;;;;;;;;;;;4238295;27;19955;-37
2023/03/03 09:13:20;;;;;;;;;;;;;;;;;;4232394;27;20299;-42
2023/03/03 09:15:21;;;;;;;;;;;;;;;;;;4242442;27;19997;-42
2023/03/03 09:17:22;;;;;;;;;;;;;;;;;;4233444;27;19916;-43
2023/03/03 09:19:24;;;;;;;;;;;;;;;;;;4244149;27;19923;-42
2023/03/03 09:21:25;;;;;;;;;;;;;;;;;;4235713;27;19968;-43
2023/03/03 09:23:26;;;;;;;;;;;;;;;;;;4225918;27;19919;-42
2023/03/03 09:25:27;;;;;;;;;;;;;;;;;;4232291;27;19924;-43
2023/03/03 09:27:28;;;;;;;;;;;;;;;;;;4235906;27;19920;-42
2023/03/03 09:29:30;;;;;;;;;;;;;;;;;;4237197;27;20295;-43
2023/03/03 09:31:31;;;;;;;;;;;;;;;;;;4237552;27;19919;-42
2023/03/03 09:33:32;;;;;;;;;;;;;;;;;;4232886;27;19919;-42
2023/03/03 09:35:34;;;;;;;;;;;;;;;;;;4244661;27;19919;-43
2023/03/03 09:37:36;;;;;;;;;;;;;;;;;;4235513;27;19915;-43
2023/03/03 09:39:37;;;;;;;;;;;;;;;;;;4240180;27;19926;-42
2023/03/03 09:41:39;;;;;;;;;;;;;;;;;;4233748;27;20295;-43
2023/03/03 09:43:40;;;;;;;;;;;;;;;;;;4232344;27;19923;-42
2023/03/03 09:45:41;;;;;;;;;;;;;;;;;;4234239;27;19920;-43
2023/03/03 09:47:42;;;;;;;;;;;;;;;;;;4234431;27;19920;-46
2023/03/03 09:49:46;;;;;;;;;;;;;;;;;;4236136;27;19968;-45
2023/03/03 09:51:47;;;;;;;;;;;;;;;;;;4232293;27;19980;-45
2023/03/03 09:53:49;;;;;;;;;;;;;;;;;;4237597;27;19941;-43
2023/03/03 09:55:49;;;;;;;;;;;;;;;;;;4224507;28;19973;-44
2023/03/03 09:57:50;;;;;;;;;;;;;;;;;;4232308;27;19968;-44
2023/03/03 09:59:52;;;;;;;;;;;;;;;;;;4241663;27;19947;-44
2023/03/03 10:01:53;;;;;;;;;;;;;;;;;;4237956;27;19939;-44
2023/03/03 10:03:54;;;;;;;;;;;;;;;;;;4236737;27;20389;-44
2023/03/03 10:05:55;;;;;;;;;;;;;;;;;;4243579;27;20427;-44
2023/03/03 10:07:56;;;;;;;;;;;;;;;;;;4244192;27;19939;-44
2023/03/03 10:09:57;;;;;;;;;;;;;;;;;;4241074;27;19964;-45
2023/03/03 10:11:58;;;;;;;;;;;;;;;;;;4240472;27;19919;-45
2023/03/03 10:14:00;;;;;;;;;;;;;;;;;;4236873;27;20234;-45
2023/03/03 10:16:01;;;;;;;;;;;;;;;;;;4231293;27;20397;-45
2023/03/03 10:18:03;;;;;;;;;;;;;;;;;;4245227;27;19916;-44
2023/03/03 10:20:04;;;;;;;;;;;;;;;;;;4233337;27;19981;-42
2023/03/03 10:22:04;;;;;;;;;;;;;;;;;;4235823;27;19919;-42
2023/03/03 10:24:06;;;;;;;;;;;;;;;;;;4237981;27;19964;-41
2023/03/03 10:26:07;;;;;;;;;;;;;;;;;;4245009;27;19919;-42
2023/03/03 10:28:08;;;;;;;;;;;;;;;;;;4238728;27;19972;-43
2023/03/03 10:30:09;;;;;;;;;;;;;;;;;;4231648;27;20438;-42
2023/03/03 10:32:10;;;;;;;;;;;;;;;;;;4227665;27;19926;-42
2023/03/03 10:34:11;;;;;;;;;;;;;;;;;;4231404;27;19924;-43
2023/03/03 10:36:13;;;;;;;;;;;;;;;;;;4231652;27;20290;-43
2023/03/03 10:38:14;;;;;;;;;;;;;;;;;;4233410;27;20014;-42
2023/03/03 10:40:15;;;;;;;;;;;;;;;;;;4240968;27;19919;-42
2023/03/03 10:42:16;;;;;;;;;;;;;;;;;;4234180;27;20375;-42
2023/03/03 10:44:17;;;;;;;;;;;;;;;;;;4230623;27;19951;-42
2023/03/03 10:46:18;;;;;;;;;;;;;;;;;;4229725;28;19923;-42
2023/03/03 10:48:19;;;;;;;;;;;;;;;;;;4227923;28;20249;-43
2023/03/03 10:50:20;;;;;;;;;;;;;;;;;;4227374;28;19969;-43
2023/03/03 10:52:21;;;;;;;;;;;;;;;;;;4237888;27;19968;-42
2023/03/03 10:54:22;;;;;;;;;;;;;;;;;;4233384;27;19926;-43
2023/03/03 10:56:23;;;;;;;;;;;;;;;;;;4234535;27;20399;-43
2023/03/03 10:58:24;;;;;;;;;;;;;;;;;;4237164;27;20336;-42
2023/03/03 11:00:26;;;;;;;;;;;;;;;;;;4238803;27;19923;-42
2023/03/03 11:02:27;;;;;;;;;;;;;;;;;;4241507;27;19915;-42
2023/03/03 11:04:28;;;;;;;;;;;;;;;;;;4232381;27;19968;-42
2023/03/03 11:06:29;;;;;;;;;;;;;;;;;;4235576;27;19919;-43
2023/03/03 11:08:30;;;;;;;;;;;;;;;;;;4230129;28;20038;-43
2023/03/03 11:10:31;;;;;;;;;;;;;;;;;;4230791;28;19968;-42
2023/03/03 11:12:32;;;;;;;;;;;;;;;;;;4227462;28;19919;-43
2023/03/03 11:14:34;;;;;;;;;;;;;;;;;;4232673;28;20256;-42
2023/03/03 11:16:35;;;;;;;;;;;;;;;;;;4237271;28;20383;-42
2023/03/03 11:18:36;;;;;;;;;;;;;;;;;;4233487;28;19980;-42
2023/03/03 11:20:37;;;;;;;;;;;;;;;;;;4236703;28;19965;-43
2023/03/03 11:22:38;;;;;;;;;;;;;;;;;;4227520;28;19923;-44
2023/03/03 11:24:39;;;;;;;;;;;;;;;;;;4234940;28;20379;-44
2023/03/03 11:26:41;;;;;;;;;;;;;;;;;;4234554;28;19919;-43
2023/03/03 11:28:42;;;;;;;;;;;;;;;;;;4243197;28;20456;-43
2023/03/03 11:30:44;;;;;;;;;;;;;;;;;;4241488;28;19938;-43
2023/03/03 11:32:45;;;;;;;;;;;;;;;;;;4233019;28;20080;-44
2023/03/03 11:34:46;;;;;;;;;;;;;;;;;;4235313;28;19923;-43
2023/03/03 11:36:48;;;;;;;;;;;;;;;;;;4240199;28;19920;-44
2023/03/03 11:38:49;;;;;;;;;;;;;;;;;;4227054;28;20431;-44
2023/03/03 11:40:50;;;;;;;;;;;;;;;;;;4224780;28;19927;-43
2023/03/03 11:42:53;;;;;;;;;;;;;;;;;;4234910;28;20365;-43
2023/03/03 11:44:54;;;;;;;;;;;;;;;;;;4241109;28;19923;-43
2023/03/03 11:46:55;;;;;;;;;;;;;;;;;;4233400;28;19915;-42
2023/03/03 11:48:56;;;;;;;;;;;;;;;;;;4227031;28;19939;-44
2023/03/03 11:50:57;;;;;;;;;;;;;;;;;;4209434;28;20547;-45
2023/03/03 11:52:58;;;;;;;;;;;;;;;;;;4227533;28;20002;-43
2023/03/03 11:54:59;;;;;;;;;;;;;;;;;;4240714;28;19947;-43
2023/03/03 11:57:01;;;;;;;;;;;;;;;;;;4236411;28;20362;-44
2023/03/03 11:59:01;;;;;;;;;;;;;;;;;;4233345;28;20052;-43
2023/03/03 12:01:03;;;;;;;;;;;;;;;;;;4224907;27;19920;-44
2023/03/03 12:03:04;;;;;;;;;;;;;;;;;;4234246;27;19924;-43
2023/03/03 12:05:05;;;;;;;;;;;;;;;;;;4246872;27;19923;-43
2023/03/03 12:07:06;;;;;;;;;;;;;;;;;;4238635;27;19915;-44
2023/03/03 12:09:07;;;;;;;;;;;;;;;;;;4236112;27;20254;-45
2023/03/03 12:11:09;;;;;;;;;;;;;;;;;;4240447;27;19927;-44
2023/03/03 12:13:10;;;;;;;;;;;;;;;;;;4226187;28;20363;-45
2023/03/03 12:15:11;;;;;;;;;;;;;;;;;;4239273;27;20426;-44
2023/03/03 12:17:12;;;;;;;;;;;;;;;;;;4233719;27;20283;-45
2023/03/03 12:19:13;;;;;;;;;;;;;;;;;;4236486;27;20045;-45
2023/03/03 12:21:14;;;;;;;;;;;;;;;;;;4241237;27;19923;-43
2023/03/03 12:23:15;;;;;;;;;;;;;;;;;;4243979;27;20389;-45
2023/03/03 12:25:16;;;;;;;;;;;;;;;;;;4233559;27;19937;-45
2023/03/03 12:27:17;;;;;;;;;;;;;;;;;;4236975;27;19919;-44
2023/03/03 12:29:19;;;;;;;;;;;;;;;;;;4237547;27;19923;-45
2023/03/03 12:31:21;;;;;;;;;;;;;;;;;;4230257;28;20283;-44
2023/03/03 12:33:22;;;;;;;;;;;;;;;;;;4243735;27;19945;-44
2023/03/03 12:35:23;;;;;;;;;;;;;;;;;;4234548;27;19919;-43
2023/03/03 12:37:24;;;;;;;;;;;;;;;;;;4202177;28;19958;-44
2023/03/03 12:39:25;;;;;;;;;;;;;;;;;;4223215;28;20376;-44
2023/03/03 12:41:26;;;;;;;;;;;;;;;;;;4246813;27;19971;-46
2023/03/03 12:43:27;;;;;;;;;;;;;;;;;;4242828;27;19919;-45
2023/03/03 12:45:28;;;;;;;;;;;;;;;;;;4236944;27;19924;-45
2023/03/03 12:47:29;;;;;;;;;;;;;;;;;;4246615;27;19980;-44
2023/03/03 12:49:30;;;;;;;;;;;;;;;;;;4245963;27;20216;-45
2023/03/03 12:51:31;;;;;;;;;;;;;;;;;;4246449;27;19997;-45
2023/03/03 12:53:32;;;;;;;;;;;;;;;;;;4246514;27;20336;-45
2023/03/03 12:55:33;;;;;;;;;;;;;;;;;;4237662;27;20042;-45
2023/03/03 12:57:34;;;;;;;;;;;;;;;;;;4242109;27;20347;-45
2023/03/03 12:59:35;;;;;;;;;;;;;;;;;;4246055;27;19919;-42
2023/03/03 13:01:37;;;;;;;;;;;;;;;;;;4246102;27;19919;-41
2023/03/03 13:03:38;;;;;;;;;;;;;;;;;;4246380;27;20275;-43
2023/03/03 13:05:39;;;;;;;;;;;;;;;;;;4245743;27;20355;-43
2023/03/03 13:07:40;;;;;;;;;;;;;;;;;;4239429;27;19926;-44
2023/03/03 13:09:41;;;;;;;;;;;;;;;;;;4235777;27;19964;-43
2023/03/03 13:11:42;;;;;;;;;;;;;;;;;;4228973;27;19928;-43
2023/03/03 13:13:43;;;;;;;;;;;;;;;;;;4228934;27;19916;-43
2023/03/03 13:15:45;;;;;;;;;;;;;;;;;;4241836;27;19930;-43
2023/03/03 13:17:46;;;;;;;;;;;;;;;;;;4236545;27;20370;-43
2023/03/03 13:19:48;;;;;;;;;;;;;;;;;;4235271;27;19919;-43
2023/03/03 13:21:49;;;;;;;;;;;;;;;;;;4243001;27;19923;-44
2023/03/03 13:23:50;;;;;;;;;;;;;;;;;;4242168;27;20295;-44
2023/03/03 13:25:51;;;;;;;;;;;;;;;;;;4234387;27;19923;-43
2023/03/03 13:27:53;;;;;;;;;;;;;;;;;;4246205;27;19920;-44
2023/03/03 13:29:54;;;;;;;;;;;;;;;;;;4243746;27;19923;-42
2023/03/03 13:31:55;;;;;;;;;;;;;;;;;;4231726;27;19920;-44
2023/03/03 13:33:57;;;;;;;;;;;;;;;;;;4240499;27;20030;-44
2023/03/03 13:35:58;;;;;;;;;;;;;;;;;;4236025;27;19969;-43
2023/03/03 13:37:59;;;;;;;;;;;;;;;;;;4246188;27;19941;-43
2023/03/03 13:40:00;;;;;;;;;;;;;;;;;;4243857;27;19923;-43
2023/03/03 13:42:01;;;;;;;;;;;;;;;;;;4229055;28;20298;-44
2023/03/03 13:44:02;;;;;;;;;;;;;;;;;;4237110;27;19926;-44
2023/03/03 13:46:04;;;;;;;;;;;;;;;;;;4245919;27;19916;-45
2023/03/03 13:48:05;;;;;;;;;;;;;;;;;;4227409;28;19927;-45
2023/03/03 13:50:06;;;;;;;;;;;;;;;;;;4245403;27;19915;-44